createdAt,value
2023-05-05T00:00:32.461Z,76.34
2023-05-05T00:01:33.331Z,76.55
2023-05-05T00:02:32.333Z,76.65
2023-05-05T00:03:31.779Z,76.58
2023-05-05T00:04:32.259Z,76.79
2023-05-05T00:05:31.666Z,77.00
2023-05-05T00:06:31.823Z,77.10
2023-05-05T00:07:31.745Z,77.00
2023-05-05T00:08:31.920Z,77.10
2023-05-05T00:09:32.429Z,77.61
2023-05-05T00:10:31.744Z,77.71
2023-05-05T00:11:31.946Z,77.92
2023-05-05T00:12:31.631Z,77.20
2023-05-05T00:13:31.503Z,77.10
2023-05-05T00:14:37.081Z,77.00
2023-05-05T00:15:31.780Z,77.20
2023-05-05T00:16:32.117Z,77.00
2023-05-05T00:17:33.247Z,77.71
2023-05-05T00:18:32.082Z,77.00
2023-05-05T00:19:31.679Z,77.40
2023-05-05T00:20:32.286Z,78.02
2023-05-05T00:21:33.128Z,77.81
2023-05-05T00:22:31.792Z,77.40
2023-05-05T00:23:32.186Z,77.61
2023-05-05T00:24:31.617Z,77.61
2023-05-05T00:25:32.312Z,77.85
2023-05-05T00:26:31.517Z,77.44
2023-05-05T00:27:32.187Z,77.95
2023-05-05T00:28:31.879Z,78.06
2023-05-05T00:29:31.888Z,78.57
2023-05-05T00:30:31.536Z,77.95
2023-05-05T00:31:31.628Z,78.06
2023-05-05T00:32:31.487Z,78.36
2023-05-05T00:33:31.235Z,78.47
2023-05-05T00:34:31.294Z,78.47
2023-05-05T00:35:31.238Z,78.36
2023-05-05T00:36:32.003Z,78.27
2023-05-05T00:37:33.467Z,78.47
2023-05-05T00:38:32.464Z,78.78
2023-05-05T00:39:31.321Z,78.98
2023-05-05T00:40:32.161Z,79.02
2023-05-05T00:41:31.158Z,78.71
2023-05-05T00:42:31.837Z,79.02
2023-05-05T00:43:31.851Z,78.57
2023-05-05T00:44:31.153Z,78.88
2023-05-05T00:45:33.255Z,79.08
2023-05-05T00:46:33.286Z,79.12
2023-05-05T00:47:31.688Z,79.43
2023-05-05T00:48:31.262Z,79.33
2023-05-05T00:49:31.745Z,79.84
2023-05-05T00:50:32.632Z,79.43
2023-05-05T00:51:31.373Z,79.33
2023-05-05T00:52:33.202Z,79.22
2023-05-05T00:53:33.014Z,79.53
2023-05-05T00:54:31.361Z,79.63
2023-05-05T00:55:33.277Z,79.74
2023-05-05T00:56:31.307Z,79.74
2023-05-05T00:57:33.678Z,79.94
2023-05-05T00:58:32.105Z,79.84
2023-05-05T00:59:32.619Z,80.15
2023-05-05T01:00:31.156Z,79.63
2023-05-05T01:01:31.001Z,79.53
2023-05-05T01:02:32.070Z,79.63
2023-05-05T01:03:31.234Z,79.43
2023-05-05T01:04:30.984Z,79.53
2023-05-05T01:05:31.437Z,79.74
2023-05-05T05:47:17.985Z,84.83
2023-05-05T05:55:22.158Z,80.65
2023-05-05T07:32:17.973Z,59.88
2023-05-05T07:33:18.701Z,60.21
2023-05-05T07:34:18.368Z,61.88
2023-05-05T07:35:17.853Z,61.94
2023-05-05T07:36:18.354Z,62.90
2023-05-05T07:37:17.792Z,64.04
2023-05-05T07:38:17.702Z,65.09
2023-05-05T07:39:17.673Z,64.99
2023-05-05T07:40:17.638Z,64.55
2023-05-05T07:41:17.620Z,65.33
2023-05-05T07:42:18.531Z,64.62
2023-05-05T07:43:17.734Z,64.49
2023-05-05T07:44:19.202Z,63.78
2023-05-05T07:45:18.173Z,64.42
2023-05-05T08:09:08.713Z,67.31
2023-05-05T08:10:07.673Z,67.14
2023-05-05T08:11:07.333Z,64.89
2023-05-05T08:12:07.473Z,64.96
2023-05-05T08:13:07.321Z,64.96
2023-05-05T08:14:07.588Z,64.25
2023-05-05T08:15:07.817Z,64.25
2023-05-05T08:16:07.773Z,64.02
2023-05-05T08:17:07.217Z,65.53
2023-05-05T08:18:07.308Z,64.93
2023-05-05T08:19:14.840Z,65.06
2023-05-05T08:20:08.215Z,65.84
2023-05-05T08:21:07.326Z,66.04
2023-05-05T08:22:07.302Z,66.17
2023-05-05T08:23:07.304Z,65.36
2023-05-05T08:24:07.183Z,66.17
2023-05-05T08:25:07.800Z,66.58
2023-05-05T08:26:07.537Z,66.30
2023-05-05T08:27:07.167Z,66.50
2023-05-05T08:28:07.619Z,66.81
2023-05-05T08:29:07.080Z,66.50
2023-05-05T08:30:07.029Z,66.00
2023-05-05T08:31:07.111Z,66.03
2023-05-05T08:32:07.217Z,66.20
2023-05-05T08:33:07.168Z,66.91
2023-05-05T08:34:07.086Z,65.22
2023-05-05T08:35:08.089Z,65.83
2023-05-05T08:36:07.165Z,66.44
2023-05-05T08:37:06.997Z,66.54
2023-05-05T08:38:07.204Z,65.93
2023-05-05T08:39:06.868Z,66.03
2023-05-05T08:40:06.896Z,65.64
2023-05-05T08:41:07.035Z,64.16
2023-05-05T08:42:07.042Z,63.15
2023-05-05T08:43:06.882Z,63.09
2023-05-05T08:44:07.594Z,61.55
2023-05-05T08:45:07.075Z,60.98
2023-05-05T08:46:07.028Z,60.15
2023-05-05T08:47:06.958Z,60.32
2023-05-05T08:48:06.980Z,59.82
2023-05-05T08:49:06.813Z,59.64
2023-05-05T08:50:06.791Z,60.55
2023-05-05T08:51:06.760Z,61.16
2023-05-05T08:52:07.047Z,61.63
2023-05-05T08:53:07.709Z,59.04
2023-05-05T08:54:07.505Z,60.15
2023-05-05T08:55:06.883Z,59.52
2023-05-05T08:56:06.883Z,58.61
2023-05-05T08:57:06.869Z,59.48
2023-05-05T08:58:06.643Z,59.20
2023-05-05T08:59:07.552Z,56.71
2023-05-05T09:00:06.690Z,56.38
2023-05-05T09:01:06.697Z,54.88
2023-05-05T09:02:06.694Z,55.40
2023-05-05T09:03:06.860Z,55.30
2023-05-05T09:04:06.637Z,57.06
2023-05-05T09:05:06.868Z,55.58
2023-05-05T09:06:06.625Z,55.58
2023-05-05T09:07:06.702Z,55.35
2023-05-05T09:08:06.818Z,55.35
2023-05-05T09:09:07.413Z,56.16
2023-05-05T09:10:06.611Z,56.82
2023-05-05T09:11:06.447Z,57.55
2023-05-05T09:12:06.547Z,58.05
2023-05-05T09:13:06.503Z,58.33
2023-05-05T09:14:06.498Z,56.69
2023-05-05T09:15:06.921Z,57.37
2023-05-05T09:16:06.569Z,57.02
2023-05-05T09:17:06.496Z,57.52
2023-05-05T09:18:06.653Z,56.54
2023-05-05T09:19:06.397Z,57.68
2023-05-05T09:20:06.386Z,59.42
2023-05-05T09:21:06.373Z,58.94
2023-05-05T09:22:06.513Z,60.72
2023-05-05T09:23:06.351Z,58.78
2023-05-05T09:24:08.505Z,58.02
2023-05-05T09:25:06.615Z,56.16
2023-05-05T09:26:06.422Z,55.88
2023-05-05T09:27:06.517Z,56.41
2023-05-05T09:28:06.213Z,57.82
2023-05-05T09:29:06.252Z,58.93
2023-05-05T09:30:06.282Z,57.82
2023-05-05T09:31:06.225Z,57.29
2023-05-05T09:32:06.227Z,55.76
2023-05-05T09:33:06.419Z,55.30
2023-05-05T09:34:06.204Z,54.35
2023-05-05T09:35:06.293Z,53.14
2023-05-05T09:36:06.284Z,52.97
2023-05-05T09:37:06.540Z,54.30
2023-05-05T09:38:06.113Z,55.03
2023-05-05T09:39:06.070Z,56.66
2023-05-05T09:40:06.154Z,56.11
2023-05-05T09:41:06.426Z,57.15
2023-05-05T09:42:06.046Z,58.28
2023-05-05T09:43:06.251Z,57.90
2023-05-05T09:44:06.309Z,57.90
2023-05-05T09:45:06.318Z,57.83
2023-05-05T09:46:06.089Z,59.11
2023-05-05T09:47:12.155Z,57.90
2023-05-05T09:48:07.021Z,58.41
2023-05-05T09:49:06.195Z,58.31
2023-05-05T09:50:06.205Z,58.07
2023-05-05T09:51:05.897Z,57.95
2023-05-05T09:52:06.714Z,57.17
2023-05-05T09:53:05.978Z,57.07
2023-05-05T09:54:06.466Z,58.86
2023-05-05T09:55:05.974Z,58.50
2023-05-05T09:56:05.845Z,57.57
2023-05-05T09:57:05.852Z,56.46
2023-05-05T09:58:05.955Z,55.23
2023-05-05T09:59:05.949Z,55.28
2023-05-05T10:00:05.907Z,53.75
2023-05-05T10:01:06.059Z,54.39
2023-05-05T10:02:05.878Z,54.20
2023-05-05T10:03:05.841Z,54.12
2023-05-05T10:04:05.841Z,55.15
2023-05-05T10:05:05.899Z,55.51
2023-05-05T10:06:05.697Z,55.03
2023-05-05T10:07:06.714Z,55.96
2023-05-05T10:08:05.767Z,57.17
2023-05-05T10:09:05.719Z,57.67
2023-05-05T10:10:05.978Z,57.26
2023-05-05T10:11:05.862Z,56.46
2023-05-05T10:12:05.805Z,58.37
2023-05-05T10:13:06.009Z,58.57
2023-05-05T10:14:05.689Z,56.46
2023-05-05T10:15:05.633Z,56.62
2023-05-05T10:16:05.794Z,59.13
2023-05-05T10:17:05.710Z,58.22
2023-05-05T10:18:07.425Z,57.35
2023-05-05T10:19:06.402Z,57.15
2023-05-05T10:20:05.814Z,58.88
2023-05-05T10:21:05.492Z,57.48
2023-05-05T10:22:06.226Z,57.81
2023-05-05T10:23:05.691Z,59.01
2023-05-05T10:24:05.433Z,59.24
2023-05-05T10:25:06.195Z,59.64
2023-05-05T10:26:05.433Z,59.84
2023-05-05T10:27:05.564Z,61.05
2023-05-05T10:28:05.418Z,58.54
2023-05-05T10:29:05.364Z,58.84
2023-05-05T10:30:05.733Z,58.84
2023-05-05T10:31:16.153Z,59.84
2023-05-05T10:32:27.129Z,59.75
2023-05-05T10:33:27.275Z,59.14
2023-05-05T10:34:06.704Z,58.84
2023-05-05T10:35:05.278Z,60.45
2023-05-05T10:36:05.288Z,60.15
2023-05-05T10:37:05.284Z,61.63
2023-05-05T10:38:05.304Z,59.44
2023-05-05T10:39:05.329Z,60.05
2023-05-05T10:40:05.240Z,60.75
2023-05-05T10:41:05.191Z,59.97
2023-05-05T10:42:05.227Z,60.98
2023-05-05T10:43:05.478Z,60.10
2023-05-05T10:44:05.408Z,60.51
2023-05-05T10:45:05.202Z,60.24
2023-05-05T10:46:05.788Z,61.04
2023-05-05T10:47:05.822Z,61.04
2023-05-05T10:48:05.279Z,62.55
2023-05-05T10:49:05.130Z,62.22
2023-05-05T10:50:05.161Z,61.44
2023-05-05T10:51:05.065Z,62.63
2023-05-05T10:52:05.084Z,62.93
2023-05-05T10:53:05.202Z,62.60
2023-05-05T10:54:05.060Z,61.25
2023-05-05T10:55:05.160Z,60.08
2023-05-05T10:56:05.231Z,58.36
2023-05-05T10:57:05.391Z,59.37
2023-05-05T10:58:05.582Z,59.67
2023-05-05T10:59:05.641Z,59.47
2023-05-05T11:00:05.049Z,60.85
2023-05-05T11:01:05.226Z,60.25
2023-05-05T11:02:04.891Z,58.97
2023-05-05T11:03:05.093Z,60.17
2023-05-05T11:04:04.948Z,58.97
2023-05-05T11:05:05.152Z,60.08
2023-05-05T11:06:04.880Z,59.75
2023-05-05T11:07:05.099Z,59.24
2023-05-05T11:08:05.039Z,59.44
2023-05-05T11:09:04.823Z,59.14
2023-05-05T11:10:06.125Z,60.05
2023-05-05T11:11:05.366Z,59.95
2023-05-05T11:12:04.774Z,59.75
2023-05-05T11:13:04.959Z,60.25
2023-05-05T11:14:04.810Z,59.24
2023-05-05T11:15:04.788Z,59.24
2023-05-05T11:16:04.815Z,58.74
2023-05-05T11:17:05.166Z,59.55
2023-05-05T11:18:07.484Z,60.55
2023-05-05T11:19:04.852Z,59.77
2023-05-05T11:20:04.706Z,60.08
2023-05-05T11:21:04.696Z,60.17
2023-05-05T11:22:04.656Z,59.00
2023-05-05T11:23:05.201Z,61.32
2023-05-05T11:24:04.605Z,59.70
2023-05-05T11:25:04.888Z,60.21
2023-05-05T11:26:04.602Z,61.08
2023-05-05T11:27:04.812Z,61.29
2023-05-05T11:28:04.657Z,62.37
2023-05-05T11:29:04.570Z,62.77
2023-05-05T11:30:04.718Z,59.24
2023-05-05T11:31:04.571Z,59.44
2023-05-05T11:32:04.520Z,59.75
2023-05-05T11:33:04.540Z,59.95
2023-05-05T11:34:04.458Z,59.14
2023-05-05T11:35:04.515Z,60.15
2023-05-05T11:36:06.500Z,60.05
2023-05-05T11:37:04.498Z,60.25
2023-05-05T11:38:04.493Z,60.45
2023-05-05T11:39:04.624Z,59.97
2023-05-05T11:40:05.325Z,60.98
2023-05-05T11:41:04.386Z,61.49
2023-05-05T11:42:09.477Z,61.96
2023-05-05T11:43:05.376Z,61.56
2023-05-05T11:44:04.356Z,60.48
2023-05-05T11:45:04.316Z,61.39
2023-05-05T11:46:04.453Z,61.69
2023-05-05T11:47:04.406Z,62.90
2023-05-05T11:48:04.806Z,61.49
2023-05-05T11:49:04.334Z,61.49
2023-05-05T11:50:04.377Z,60.38
2023-05-05T11:51:04.270Z,60.17
2023-05-05T11:52:04.223Z,60.68
2023-05-05T11:53:04.281Z,60.58
2023-05-05T11:54:04.269Z,60.88
2023-05-05T11:55:04.363Z,61.59
2023-05-05T11:56:04.187Z,60.96
2023-05-05T11:57:04.357Z,60.48
2023-05-05T11:58:04.364Z,60.58
2023-05-05T11:59:04.261Z,60.17
2023-05-05T12:00:04.668Z,60.71
2023-05-05T12:01:04.164Z,60.71
2023-05-05T12:02:04.092Z,61.89
2023-05-05T12:03:04.227Z,62.80
2023-05-05T12:04:04.442Z,62.29
2023-05-05T12:05:04.105Z,61.79
2023-05-05T12:06:04.480Z,61.56
2023-05-05T12:07:04.035Z,60.35
2023-05-05T12:08:04.122Z,59.84
2023-05-05T12:09:04.079Z,60.45
2023-05-05T12:10:03.975Z,60.75
2023-05-05T12:11:04.030Z,60.05
2023-05-05T12:12:03.919Z,60.52
2023-05-05T12:13:04.160Z,59.82
2023-05-05T12:14:03.902Z,59.64
2023-05-05T12:15:04.835Z,60.55
2023-05-05T12:16:04.030Z,60.35
2023-05-05T12:17:03.875Z,60.65
2023-05-05T12:18:03.991Z,61.29
2023-05-05T12:19:04.125Z,61.11
2023-05-05T12:20:03.795Z,62.32
2023-05-05T12:21:03.945Z,62.22
2023-05-05T12:22:03.914Z,61.32
2023-05-05T12:23:03.944Z,62.63
2023-05-05T12:24:04.588Z,62.02
2023-05-05T12:25:03.789Z,61.95
2023-05-05T12:26:03.735Z,62.25
2023-05-05T12:27:03.819Z,62.85
2023-05-05T12:28:03.817Z,63.19
2023-05-05T12:29:04.758Z,63.19
2023-05-05T12:30:03.660Z,64.30
2023-05-05T12:31:03.888Z,65.14
2023-05-05T12:32:03.756Z,66.75
2023-05-05T12:33:03.806Z,67.39
2023-05-05T12:34:03.800Z,68.60
2023-05-05T12:35:03.936Z,70.36
2023-05-05T12:36:03.689Z,70.86
2023-05-05T12:37:03.997Z,73.63
2023-05-05T12:38:03.819Z,75.58
2023-05-05T12:39:03.592Z,77.10
2023-05-05T12:40:03.992Z,79.06
2023-05-05T12:41:03.561Z,79.60
2023-05-05T12:42:03.513Z,79.64
2023-05-05T12:43:03.538Z,79.58
2023-05-05T12:44:03.781Z,81.60
2023-05-05T12:45:03.941Z,80.63
2023-05-05T12:46:03.819Z,81.74
2023-05-05T12:47:03.549Z,81.74
2023-05-05T12:48:03.652Z,81.85
2023-05-05T12:49:03.790Z,80.32
2023-05-05T12:50:03.482Z,79.14
2023-05-05T12:51:03.561Z,80.97
2023-05-05T12:52:03.422Z,81.44
2023-05-05T12:53:03.369Z,79.61
2023-05-05T12:54:03.342Z,80.53
2023-05-05T12:55:03.389Z,79.72
2023-05-05T12:56:03.304Z,77.18
2023-05-05T12:57:03.745Z,77.79
2023-05-05T12:58:03.430Z,79.38
2023-05-05T12:59:03.565Z,78.16
2023-05-05T13:00:03.350Z,77.65
2023-05-05T13:01:03.315Z,75.32
2023-05-05T13:02:03.279Z,75.28
2023-05-05T13:03:03.387Z,74.57
2023-05-05T13:04:03.599Z,75.49
2023-05-05T13:05:03.224Z,75.96
2023-05-05T13:06:03.193Z,73.83
2023-05-05T13:07:03.191Z,74.54
2023-05-05T13:08:03.180Z,73.53
2023-05-05T13:09:03.131Z,73.53
2023-05-05T13:10:03.275Z,73.09
2023-05-05T13:11:03.157Z,72.28
2023-05-05T13:12:03.156Z,71.77
2023-05-05T13:13:03.245Z,72.24
2023-05-05T13:14:03.684Z,72.14
2023-05-05T13:15:03.076Z,71.70
2023-05-05T13:16:03.056Z,70.69
2023-05-05T13:17:03.075Z,71.26
2023-05-05T13:18:03.168Z,71.06
2023-05-05T13:19:03.044Z,69.04
2023-05-05T13:20:03.082Z,68.80
2023-05-05T13:21:03.026Z,67.49
2023-05-05T13:22:02.941Z,67.29
2023-05-05T13:23:03.265Z,68.17
2023-05-05T13:24:20.807Z,67.53
2023-05-05T13:25:03.915Z,66.22
2023-05-05T13:26:02.957Z,66.22
2023-05-05T13:27:03.680Z,65.71
2023-05-05T13:28:02.989Z,65.38
2023-05-05T13:29:02.996Z,65.68
2023-05-05T13:30:02.912Z,63.93
2023-05-05T13:31:02.907Z,64.01
2023-05-05T13:32:02.848Z,63.65
2023-05-05T13:33:02.841Z,63.51
2023-05-05T13:34:03.668Z,62.58
2023-05-05T13:35:02.808Z,60.74
2023-05-05T13:36:02.739Z,59.20
2023-05-05T13:37:02.786Z,59.47
2023-05-05T13:38:02.766Z,57.91
2023-05-05T13:39:03.764Z,57.15
2023-05-05T13:40:03.653Z,56.27
2023-05-05T13:41:02.779Z,55.98
2023-05-05T13:42:02.769Z,55.85
2023-05-05T13:43:02.830Z,56.05
2023-05-05T13:44:02.719Z,56.40
2023-05-05T13:45:02.740Z,55.90
2023-05-05T13:46:16.153Z,55.02
2023-05-05T13:47:03.900Z,56.76
2023-05-05T13:48:02.684Z,57.18
2023-05-05T13:49:02.692Z,59.01
2023-05-05T13:50:02.643Z,57.17
2023-05-05T13:51:02.627Z,57.90
2023-05-05T13:52:02.522Z,58.53
2023-05-05T13:53:02.548Z,59.36
2023-05-05T13:54:02.532Z,59.79
2023-05-05T13:55:03.486Z,60.69
2023-05-05T13:56:02.948Z,60.93
2023-05-05T13:57:02.472Z,62.13
2023-05-05T13:58:02.551Z,62.54
2023-05-05T13:59:02.650Z,61.60
2023-05-05T14:00:02.696Z,61.50
2023-05-05T14:01:02.476Z,61.67
2023-05-05T14:02:02.506Z,61.57
2023-05-05T14:03:02.765Z,60.74
2023-05-05T14:04:05.205Z,59.23
2023-05-05T14:05:03.000Z,59.03
2023-05-05T14:06:02.713Z,59.41
2023-05-05T14:07:02.676Z,59.55
2023-05-05T14:08:02.595Z,57.41
2023-05-05T14:09:02.324Z,57.39
2023-05-05T14:10:02.470Z,57.26
2023-05-05T14:11:02.387Z,56.08
2023-05-05T14:12:02.768Z,56.41
2023-05-05T14:13:02.379Z,58.04
2023-05-05T14:14:02.611Z,58.14
2023-05-05T14:15:02.268Z,57.44
2023-05-05T14:16:02.390Z,57.94
2023-05-05T14:17:02.394Z,57.91
2023-05-05T14:18:02.212Z,59.01
2023-05-05T14:19:02.242Z,58.42
2023-05-05T14:20:02.174Z,57.94
2023-05-05T14:21:02.238Z,58.44
2023-05-05T14:22:02.115Z,58.84
2023-05-05T14:23:02.183Z,57.87
2023-05-05T14:24:02.636Z,60.18
2023-05-05T14:25:02.393Z,59.47
2023-05-05T14:26:02.497Z,59.17
2023-05-05T14:27:02.033Z,59.58
2023-05-05T14:28:02.612Z,60.85
2023-05-05T14:29:02.071Z,59.45
2023-05-05T14:30:02.751Z,59.17
2023-05-05T14:31:02.014Z,59.98
2023-05-05T14:32:02.831Z,58.87
2023-05-05T14:33:02.239Z,60.11
2023-05-05T14:34:02.091Z,61.41
2023-05-05T14:35:01.992Z,60.11
2023-05-05T14:36:01.979Z,59.56
2023-05-05T14:37:02.259Z,60.16
2023-05-05T14:38:02.944Z,60.77
2023-05-05T14:39:01.929Z,59.69
2023-05-05T14:40:04.318Z,60.19
2023-05-05T14:41:01.967Z,59.69
2023-05-05T14:42:02.001Z,60.72
2023-05-05T14:43:02.032Z,61.63
2023-05-05T14:44:01.847Z,61.30
2023-05-05T14:45:01.789Z,60.57
2023-05-05T14:46:01.823Z,59.80
2023-05-05T14:47:01.965Z,57.84
2023-05-05T14:48:01.854Z,57.97
2023-05-05T14:49:01.740Z,58.60
2023-05-05T14:50:01.705Z,59.23
2023-05-05T14:51:01.900Z,59.74
2023-05-05T14:52:01.719Z,59.53
2023-05-05T14:53:01.916Z,60.24
2023-05-05T14:54:01.654Z,59.03
2023-05-05T14:55:01.711Z,59.16
2023-05-05T14:56:01.641Z,59.66
2023-05-05T14:57:01.872Z,59.79
2023-05-05T14:58:01.889Z,60.72
2023-05-05T14:59:01.684Z,60.63
2023-05-05T15:00:01.709Z,61.16
2023-05-05T15:01:01.827Z,62.60
2023-05-05T15:02:01.920Z,63.40
2023-05-05T15:03:01.888Z,63.30
2023-05-05T15:04:01.640Z,64.41
2023-05-05T15:05:01.559Z,63.64
2023-05-05T15:06:01.570Z,63.93
2023-05-05T15:07:01.540Z,63.70
2023-05-05T15:08:01.685Z,63.30
2023-05-05T15:09:01.529Z,62.80
2023-05-05T15:10:01.541Z,63.20
2023-05-05T15:11:01.821Z,62.40
2023-05-05T15:12:01.446Z,63.30
2023-05-05T15:13:01.679Z,62.49
2023-05-05T15:14:01.606Z,63.33
2023-05-05T15:15:01.426Z,63.93
2023-05-05T15:16:01.659Z,63.93
2023-05-05T15:17:01.394Z,64.34
2023-05-05T15:18:01.409Z,63.64
2023-05-05T15:19:01.792Z,63.46
2023-05-05T15:20:01.393Z,64.27
2023-05-05T15:21:01.303Z,64.40
2023-05-05T15:22:01.426Z,65.41
2023-05-05T15:23:01.359Z,64.61
2023-05-05T15:24:01.300Z,64.70
2023-05-05T15:25:01.365Z,64.90
2023-05-05T15:26:01.245Z,65.41
2023-05-05T15:27:01.272Z,64.73
2023-05-05T15:28:01.425Z,64.84
2023-05-05T15:29:01.233Z,65.14
2023-05-05T15:30:01.219Z,65.95
2023-05-05T15:31:01.250Z,65.54
2023-05-05T15:32:01.568Z,66.25
2023-05-05T15:33:01.304Z,64.94
2023-05-05T15:34:01.330Z,64.33
2023-05-05T15:35:01.326Z,64.33
2023-05-05T15:36:01.148Z,64.84
2023-05-05T15:37:01.228Z,65.34
2023-05-05T15:38:01.113Z,65.84
2023-05-05T15:39:01.191Z,64.94
2023-05-05T15:40:01.033Z,65.24
2023-05-05T15:41:01.861Z,65.04
2023-05-05T15:42:01.160Z,64.94
2023-05-05T15:43:00.978Z,65.54
2023-05-05T15:44:01.276Z,65.04
2023-05-05T15:45:00.991Z,65.75
2023-05-05T15:46:01.036Z,65.64
2023-05-05T15:47:01.113Z,65.24
2023-05-05T15:48:01.004Z,65.78
2023-05-05T15:49:00.944Z,65.07
2023-05-05T15:50:00.987Z,66.18
2023-05-05T15:51:01.188Z,66.25
2023-05-05T15:52:01.018Z,66.08
2023-05-05T15:53:01.037Z,66.48
2023-05-05T15:54:01.568Z,65.88
2023-05-05T15:55:01.025Z,65.91
2023-05-05T15:56:01.716Z,66.21
2023-05-05T15:57:00.798Z,66.11
2023-05-05T15:58:00.879Z,66.61
2023-05-05T15:59:00.781Z,66.01
2023-05-05T16:00:00.858Z,67.12
2023-05-05T16:01:01.208Z,67.02
2023-05-05T16:02:00.750Z,67.12
2023-05-05T16:03:01.224Z,67.55
2023-05-05T16:04:01.566Z,67.55
2023-05-05T16:05:00.747Z,67.46
2023-05-05T16:06:00.702Z,67.35
2023-05-05T16:07:00.721Z,67.59
2023-05-05T16:08:00.719Z,67.18
2023-05-05T16:09:00.704Z,67.69
2023-05-05T16:10:00.958Z,67.69
2023-05-05T16:11:00.870Z,67.22
2023-05-05T16:12:00.808Z,67.82
2023-05-05T16:13:00.827Z,67.72
2023-05-05T16:14:00.644Z,68.23
2023-05-05T16:15:00.649Z,68.02
2023-05-05T16:16:01.182Z,67.62
2023-05-05T16:17:01.585Z,68.33
2023-05-05T16:18:00.618Z,68.53
2023-05-05T16:19:00.788Z,69.34
2023-05-05T16:20:00.537Z,68.94
2023-05-05T16:21:00.520Z,69.37
2023-05-05T16:22:00.494Z,68.97
2023-05-05T16:23:00.451Z,69.17
2023-05-05T16:24:00.887Z,69.37
2023-05-05T16:25:00.559Z,69.27
2023-05-05T16:26:00.797Z,69.27
2023-05-05T16:27:00.395Z,69.07
2023-05-05T16:28:00.409Z,69.07
2023-05-05T16:29:00.526Z,69.17
2023-05-05T16:30:00.377Z,69.48
2023-05-05T16:31:00.450Z,69.48
2023-05-05T16:32:00.323Z,69.51
2023-05-05T16:33:00.392Z,69.31
2023-05-05T16:34:00.434Z,69.20
2023-05-05T16:35:00.268Z,70.21
2023-05-05T16:36:00.302Z,70.21
2023-05-05T16:37:00.691Z,70.21
2023-05-05T16:38:00.600Z,70.72
2023-05-05T16:39:00.217Z,71.03
2023-05-05T16:40:00.337Z,70.83
2023-05-05T16:41:00.468Z,71.03
2023-05-05T16:42:00.221Z,70.83
2023-05-05T16:43:00.192Z,70.83
2023-05-05T16:44:00.363Z,70.96
2023-05-05T16:45:00.268Z,71.57
2023-05-05T16:46:00.235Z,71.77
2023-05-05T16:47:00.202Z,72.17
2023-05-05T16:48:00.168Z,72.17
2023-05-05T16:49:00.172Z,72.08
2023-05-05T16:50:01.089Z,72.28
2023-05-05T16:51:00.181Z,71.88
2023-05-05T16:52:00.078Z,72.28
2023-05-05T16:53:00.127Z,72.38
2023-05-05T16:54:00.802Z,72.58
2023-05-05T16:55:00.805Z,72.52
2023-05-05T16:56:00.002Z,73.02
2023-05-05T16:57:00.032Z,72.52
2023-05-05T16:57:59.972Z,72.31
2023-05-05T16:59:00.756Z,72.82
2023-05-05T16:59:59.992Z,73.53
2023-05-05T17:00:59.970Z,73.63
2023-05-05T17:02:00.443Z,73.43
2023-05-05T17:03:00.008Z,73.22
2023-05-05T17:03:59.862Z,72.92
2023-05-05T17:04:59.882Z,73.12
2023-05-05T17:06:00.757Z,73.57
2023-05-05T17:07:00.670Z,73.36
2023-05-05T17:07:59.974Z,73.77
2023-05-05T17:09:00.728Z,73.77
2023-05-05T17:10:00.013Z,74.07
2023-05-05T17:11:00.771Z,74.17
2023-05-05T17:11:59.819Z,74.58
2023-05-05T17:13:00.614Z,75.09
2023-05-05T17:13:59.780Z,74.78
2023-05-05T17:15:00.054Z,75.19
2023-05-05T17:15:59.851Z,74.58
2023-05-05T17:16:59.745Z,74.62
2023-05-05T17:18:00.786Z,74.82
2023-05-05T17:18:59.671Z,75.22
2023-05-05T17:19:59.911Z,75.43
2023-05-05T17:20:59.721Z,75.12
2023-05-05T17:21:59.726Z,75.83
2023-05-05T17:22:59.660Z,75.76
2023-05-05T17:23:59.644Z,75.97
2023-05-05T17:24:59.644Z,76.17
2023-05-05T17:25:59.613Z,76.78
2023-05-05T17:27:00.615Z,76.28
2023-05-05T17:27:59.557Z,76.61
2023-05-05T17:28:59.833Z,77.43
2023-05-05T17:29:59.581Z,77.02
2023-05-05T17:30:59.558Z,77.43
2023-05-05T17:32:00.402Z,77.33
2023-05-05T17:32:59.614Z,77.73
2023-05-05T17:34:00.346Z,77.33
2023-05-05T17:34:59.584Z,77.22
2023-05-05T17:35:59.443Z,78.28
2023-05-05T17:36:59.591Z,77.87
2023-05-05T17:37:59.440Z,77.67
2023-05-05T17:38:59.378Z,77.47
2023-05-05T17:39:59.387Z,77.87
2023-05-05T17:40:59.388Z,77.77
2023-05-05T17:41:59.363Z,77.36
2023-05-05T17:42:59.342Z,77.87
2023-05-05T17:43:59.563Z,78.58
2023-05-05T17:44:59.612Z,78.28
2023-05-05T17:45:59.447Z,78.38
2023-05-05T17:46:59.293Z,78.48
2023-05-05T17:47:59.707Z,78.21
2023-05-05T17:48:59.372Z,78.62
2023-05-05T17:49:59.265Z,78.62
2023-05-05T17:50:59.716Z,78.11
2023-05-05T17:51:59.208Z,78.41
2023-05-05T17:52:59.766Z,78.62
2023-05-05T17:53:59.699Z,78.31
2023-05-05T17:54:59.179Z,78.82
2023-05-05T17:55:59.701Z,79.33
2023-05-05T17:56:59.966Z,79.53
2023-05-05T17:57:59.205Z,79.37
2023-05-05T17:58:59.143Z,79.57
2023-05-05T17:59:59.175Z,79.37
2023-05-05T18:00:59.297Z,79.27
2023-05-05T18:01:59.223Z,79.98
2023-05-05T18:02:59.305Z,80.69
2023-05-05T18:03:59.345Z,81.81
2023-05-05T18:04:59.135Z,82.62
2023-05-05T18:05:59.259Z,84.29
2023-05-05T18:06:59.043Z,84.59
2023-05-05T18:07:59.094Z,84.59
2023-05-05T18:08:58.976Z,84.43
2023-05-05T18:09:58.998Z,86.37
2023-05-05T18:10:58.932Z,85.25
2023-05-05T18:11:59.032Z,85.69
2023-05-05T18:12:59.013Z,85.60
2023-05-05T18:13:58.944Z,85.80
2023-05-05T18:14:59.750Z,86.61
2023-05-05T18:15:58.922Z,86.10
2023-05-05T18:16:59.068Z,86.71
2023-05-05T18:17:58.858Z,86.00
2023-05-05T18:18:58.881Z,86.10
2023-05-05T18:19:58.837Z,86.71
2023-05-05T18:20:58.839Z,85.02
2023-05-05T18:21:58.808Z,85.74
2023-05-05T18:22:58.876Z,86.04
2023-05-05T18:24:07.554Z,86.65
2023-05-05T18:24:59.750Z,87.26
2023-05-05T18:25:58.732Z,88.18
2023-05-05T18:26:58.753Z,89.61
2023-05-05T18:27:58.837Z,89.71
2023-05-05T18:28:58.725Z,90.63
2023-05-05T18:29:58.702Z,91.28
2023-05-05T18:30:58.673Z,90.57
2023-05-05T18:31:58.732Z,91.39
2023-05-05T18:32:58.753Z,92.61
2023-05-05T18:33:58.862Z,92.35
2023-05-05T18:34:58.630Z,93.26
2023-05-05T18:35:58.854Z,93.16
2023-05-05T18:36:58.572Z,92.86
2023-05-05T18:37:58.669Z,92.90
2023-05-05T18:38:58.652Z,92.49
2023-05-05T18:39:58.523Z,92.43
2023-05-05T18:40:59.298Z,93.15
2023-05-05T18:41:58.480Z,92.74
2023-05-05T18:42:58.504Z,92.84
2023-05-05T18:43:58.487Z,92.13
2023-05-05T18:44:58.478Z,92.23
2023-05-05T18:45:59.473Z,93.05
2023-05-05T18:46:58.523Z,93.35
2023-05-05T18:47:58.546Z,93.66
2023-05-05T18:48:58.410Z,92.64
2023-05-05T18:49:58.374Z,91.20
2023-05-05T18:50:59.378Z,91.41
2023-05-05T18:51:58.353Z,89.98
2023-05-05T18:52:58.345Z,89.78
2023-05-05T18:53:58.381Z,88.14
2023-05-05T18:54:58.321Z,87.94
2023-05-05T18:55:59.150Z,88.24
2023-05-05T18:56:59.376Z,88.85
2023-05-05T18:57:59.206Z,88.55
2023-05-05T18:58:58.286Z,88.65
2023-05-05T18:59:59.022Z,88.45
2023-05-05T19:00:58.296Z,88.04
2023-05-05T19:01:58.892Z,87.12
2023-05-05T19:02:58.284Z,87.63
2023-05-05T19:03:59.181Z,86.61
2023-05-05T19:04:58.238Z,86.41
2023-05-05T19:05:58.134Z,86.30
2023-05-05T19:06:58.180Z,86.91
2023-05-05T19:07:59.078Z,87.02
2023-05-05T19:08:59.033Z,87.32
2023-05-05T19:09:58.178Z,86.61
2023-05-05T19:10:58.108Z,86.20
2023-05-05T19:11:58.120Z,85.18
2023-05-05T19:12:58.114Z,85.59
2023-05-05T19:13:58.110Z,86.00
2023-05-05T19:14:58.105Z,85.89
2023-05-05T19:15:58.089Z,86.00
2023-05-05T19:16:58.743Z,86.71
2023-05-05T19:17:58.062Z,87.23
2023-05-05T19:18:57.966Z,87.02
2023-05-05T19:19:57.976Z,87.32
2023-05-05T19:20:57.958Z,87.43
2023-05-05T19:21:58.009Z,87.02
2023-05-05T19:22:58.153Z,87.02
2023-05-05T19:23:57.943Z,86.91
2023-05-05T19:24:57.970Z,86.71
2023-05-05T19:25:57.928Z,86.00
2023-05-05T19:26:57.958Z,85.18
2023-05-05T19:27:57.939Z,84.16
2023-05-05T19:28:57.837Z,84.57
2023-05-05T19:29:57.845Z,84.26
2023-05-05T19:30:57.863Z,84.36
2023-05-05T19:31:57.895Z,84.77
2023-05-05T19:32:57.840Z,84.67
2023-05-05T19:33:57.775Z,84.67
2023-05-05T19:34:57.797Z,84.06
2023-05-05T19:35:57.781Z,84.26
2023-05-05T19:36:57.776Z,83.44
2023-05-05T19:37:57.825Z,83.75
2023-05-05T19:38:57.695Z,83.44